Time;durP1;ratioP1;P1;durP2;ratioP2;P2;SDS_P1;SDS_P2;PMS_P1;PMS_P2;Temp;Humidity;BMP_temperature;BMP_pressure;BME280_temperature;BME280_humidity;BME280_pressure;Samples;Min_cycle;Max_cycle;Signal;HPM_P1;HPM_P2
2022/07/28 00:00:15;;;;;;;1.47;1.00;;;16.90;86.90;;;;;;4971907;28;20490;-77
2022/07/28 00:02:41;;;;;;;1.47;0.90;;;16.90;86.80;;;;;;4956042;28;20493;-77
2022/07/28 00:05:09;;;;;;;1.50;1.00;;;16.90;87.00;;;;;;4977049;28;20843;-76
2022/07/28 00:07:38;;;;;;;1.47;1.00;;;16.90;87.10;;;;;;4948482;28;20479;-77
2022/07/28 00:10:06;;;;;;;1.43;0.97;;;16.90;86.90;;;;;;4976087;28;20489;-77
2022/07/28 00:12:33;;;;;;;1.47;1.00;;;16.90;87.20;;;;;;4964309;28;20898;-77
2022/07/28 00:15:00;;;;;;;1.43;1.00;;;16.80;87.40;;;;;;4990909;28;20580;-77
2022/07/28 00:17:27;;;;;;;1.47;1.00;;;16.90;87.40;;;;;;4961856;28;20482;-77
2022/07/28 00:19:54;;;;;;;1.43;0.90;;;16.80;87.30;;;;;;4978913;28;20493;-75
2022/07/28 00:22:25;;;;;;;1.47;0.90;;;16.80;87.70;;;;;;4982523;28;20495;-76
2022/07/28 00:24:55;;;;;;;1.43;1.00;;;16.80;87.30;;;;;;4981480;28;20468;-76
2022/07/28 00:27:23;;;;;;;1.40;0.93;;;16.80;87.20;;;;;;4972248;28;20557;-75
2022/07/28 00:29:51;;;;;;;1.47;0.90;;;16.80;87.50;;;;;;4975746;28;20466;-76
2022/07/28 00:32:22;;;;;;;1.50;0.90;;;16.90;87.50;;;;;;4971662;28;20486;-76
2022/07/28 00:34:52;;;;;;;1.47;1.00;;;16.90;87.70;;;;;;4975558;28;20470;-76
2022/07/28 00:37:23;;;;;;;1.47;1.00;;;16.90;87.40;;;;;;4964680;28;21058;-75
2022/07/28 00:39:50;;;;;;;1.50;1.00;;;16.90;87.50;;;;;;4977421;28;20492;-76
2022/07/28 00:42:20;;;;;;;1.43;1.00;;;16.90;87.60;;;;;;4963875;28;20485;-76
2022/07/28 00:44:47;;;;;;;1.43;1.00;;;16.90;87.50;;;;;;4980990;28;20465;-76
2022/07/28 00:47:15;;;;;;;1.47;0.90;;;16.90;88.10;;;;;;4956121;28;20521;-76
2022/07/28 00:49:45;;;;;;;1.47;1.00;;;16.80;88.00;;;;;;4988628;28;20460;-76
2022/07/28 00:52:13;;;;;;;1.47;1.00;;;16.80;87.80;;;;;;4976199;28;20486;-77
2022/07/28 00:54:40;;;;;;;1.50;1.00;;;16.90;87.70;;;;;;4986447;28;20837;-76
2022/07/28 00:57:08;;;;;;;1.50;1.00;;;16.90;87.40;;;;;;4977577;28;20489;-76
2022/07/28 00:59:40;;;;;;;1.43;0.93;;;16.90;87.50;;;;;;4978989;28;20862;-76
2022/07/28 01:02:08;;;;;;;1.50;0.97;;;16.90;87.50;;;;;;4984927;28;20913;-77
2022/07/28 01:04:35;;;;;;;1.50;1.00;;;16.90;87.50;;;;;;4980253;28;20461;-77
2022/07/28 01:07:14;;;;;;;1.47;0.90;;;16.90;87.60;;;;;;4957472;28;20495;-76
2022/07/28 01:10:03;;;;;;;1.43;1.00;;;16.80;87.50;;;;;;4984049;28;21013;-77
2022/07/28 01:12:50;;;;;;;1.50;1.00;;;16.80;87.70;;;;;;4968297;28;20500;-77
2022/07/28 01:15:28;;;;;;;1.43;0.90;;;16.80;87.60;;;;;;4980330;28;20553;-76
2022/07/28 01:18:03;;;;;;;1.50;1.00;;;16.70;87.80;;;;;;4970449;28;20569;-76
2022/07/28 01:20:37;;;;;;;1.50;1.00;;;16.70;87.90;;;;;;4994250;28;20481;-76
2022/07/28 01:23:54;;;;;;;1.47;1.00;;;16.60;87.60;;;;;;4973836;28;20484;-77
2022/07/28 01:26:51;;;;;;;1.47;1.00;;;16.60;88.10;;;;;;4916886;29;20544;-77
2022/07/28 01:29:34;;;;;;;1.50;1.00;;;16.60;88.10;;;;;;4914000;29;20465;-77
2022/07/28 01:32:06;;;;;;;1.47;0.90;;;16.60;88.30;;;;;;4966705;28;20485;-78
2022/07/28 01:34:41;;;;;;;1.43;1.00;;;16.50;88.60;;;;;;4985431;28;20457;-77
2022/07/28 01:37:12;;;;;;;1.50;1.00;;;16.50;88.70;;;;;;4971596;28;20958;-77
2022/07/28 01:39:42;;;;;;;1.47;1.00;;;16.50;88.60;;;;;;4959709;28;20580;-76
2022/07/28 01:42:12;;;;;;;1.47;0.90;;;16.50;88.70;;;;;;4965304;28;20584;-77
2022/07/28 01:44:43;;;;;;;1.50;1.00;;;16.50;88.70;;;;;;4974448;28;20508;-77
2022/07/28 01:47:13;;;;;;;1.43;0.90;;;16.50;88.70;;;;;;4965906;28;20498;-77
2022/07/28 01:49:41;;;;;;;1.47;1.00;;;16.50;88.90;;;;;;4984086;28;20483;-76
2022/07/28 01:52:09;;;;;;;1.50;1.00;;;16.50;89.20;;;;;;4969574;28;20704;-77
2022/07/28 01:54:40;;;;;;;1.43;0.90;;;16.50;89.70;;;;;;4971767;28;20469;-77
2022/07/28 01:57:13;;;;;;;1.50;1.00;;;16.50;88.90;;;;;;4963235;28;20490;-76
2022/07/28 01:59:41;;;;;;;1.43;0.90;;;16.50;88.40;;;;;;4972091;28;20531;-76
2022/07/28 02:02:10;;;;;;;1.47;0.90;;;16.50;88.80;;;;;;4965203;28;20500;-76
2022/07/28 02:04:40;;;;;;;1.47;0.90;;;16.60;89.00;;;;;;4976709;28;20539;-76
2022/07/28 02:07:09;;;;;;;1.50;1.00;;;16.60;88.90;;;;;;4952300;28;20995;-77
2022/07/28 02:09:37;;;;;;;1.47;0.90;;;16.60;89.00;;;;;;4966645;28;20466;-76
2022/07/28 02:12:06;;;;;;;1.47;1.00;;;16.60;89.00;;;;;;4957581;28;20576;-76
2022/07/28 02:14:35;;;;;;;1.43;0.90;;;16.60;88.60;;;;;;4971690;28;20473;-76
2022/07/28 02:17:07;;;;;;;1.47;1.00;;;16.50;88.90;;;;;;4960534;28;20490;-76
2022/07/28 02:19:35;;;;;;;1.50;1.00;;;16.50;88.70;;;;;;4970930;28;20500;-76
2022/07/28 02:22:05;;;;;;;1.50;0.90;;;16.50;89.20;;;;;;4962395;28;21006;-76
2022/07/28 02:24:33;;;;;;;1.47;1.00;;;16.50;88.90;;;;;;4972538;28;20484;-76
2022/07/28 02:27:03;;;;;;;1.47;0.97;;;16.50;88.90;;;;;;4957970;28;20823;-76
2022/07/28 02:29:36;;;;;;;1.47;0.90;;;16.50;89.20;;;;;;4974105;28;20498;-75
2022/07/28 02:32:08;;;;;;;1.50;1.00;;;16.50;89.20;;;;;;4972558;28;20485;-76
2022/07/28 02:34:37;;;;;;;1.43;0.90;;;16.50;89.30;;;;;;4973022;28;20465;-74
2022/07/28 02:37:08;;;;;;;1.47;0.90;;;16.50;89.50;;;;;;4970265;28;20615;-76
2022/07/28 02:39:40;;;;;;;1.50;1.00;;;16.40;89.80;;;;;;4971658;28;20492;-75
2022/07/28 02:42:13;;;;;;;1.50;0.90;;;16.40;89.70;;;;;;4968868;28;20497;-77
2022/07/28 02:44:43;;;;;;;1.50;1.00;;;16.30;89.80;;;;;;4975861;28;20474;-77
2022/07/28 02:47:16;;;;;;;1.50;1.00;;;16.30;90.30;;;;;;4980472;28;20557;-77
2022/07/28 02:49:45;;;;;;;1.47;1.00;;;16.20;90.40;;;;;;4975791;28;20516;-77
2022/07/28 02:52:15;;;;;;;1.50;1.00;;;16.20;90.80;;;;;;4954011;28;20489;-76
2022/07/28 02:54:46;;;;;;;1.50;1.00;;;16.10;90.90;;;;;;4973895;28;20941;-78
2022/07/28 02:57:14;;;;;;;1.50;1.00;;;16.10;91.00;;;;;;4976817;28;20488;-77
2022/07/28 02:59:43;;;;;;;1.50;0.90;;;16.00;91.10;;;;;;4976037;28;20532;-76
2022/07/28 03:02:12;;;;;;;1.47;1.00;;;16.00;91.20;;;;;;4959621;28;20556;-77
2022/07/28 03:05:00;;;;;;;1.50;1.00;;;15.90;91.40;;;;;;4985420;28;20476;-78
2022/07/28 03:07:30;;;;;;;1.50;1.00;;;15.90;91.60;;;;;;4948583;28;20486;-77
2022/07/28 03:09:57;;;;;;;1.50;1.07;;;15.80;91.60;;;;;;4969047;28;20517;-77
2022/07/28 03:12:24;;;;;;;1.47;1.00;;;15.80;91.80;;;;;;4976222;28;20477;-76
2022/07/28 03:14:52;;;;;;;1.50;1.00;;;15.70;92.30;;;;;;4990277;28;20465;-77
2022/07/28 03:17:19;;;;;;;1.50;1.00;;;15.70;92.60;;;;;;4961986;28;20572;-76
2022/07/28 03:19:46;;;;;;;1.50;1.00;;;15.60;92.10;;;;;;4966429;28;20520;-77
2022/07/28 03:22:14;;;;;;;1.50;1.10;;;15.60;92.60;;;;;;4946841;28;20639;-76
2022/07/28 03:24:47;;;;;;;1.50;1.00;;;15.50;92.50;;;;;;4968057;28;20512;-78
2022/07/28 03:27:21;;;;;;;1.47;1.00;;;15.50;93.10;;;;;;4976492;28;20551;-77
2022/07/28 03:29:53;;;;;;;1.50;1.20;;;15.40;92.50;;;;;;4982731;28;20469;-78
2022/07/28 03:32:22;;;;;;;1.50;1.00;;;15.30;93.00;;;;;;4971574;28;20521;-78
2022/07/28 03:34:51;;;;;;;1.47;1.03;;;15.30;93.10;;;;;;4966340;28;20472;-78
2022/07/28 03:37:32;;;;;;;1.50;1.00;;;15.30;93.60;;;;;;4966309;28;20508;-78
2022/07/28 03:40:01;;;;;;;1.50;1.00;;;15.30;93.50;;;;;;4968623;28;20485;-78
2022/07/28 03:42:30;;;;;;;1.50;1.00;;;15.20;93.70;;;;;;4960840;28;20499;-77
2022/07/28 03:44:57;;;;;;;1.50;1.00;;;15.10;94.00;;;;;;4969140;28;20870;-77
2022/07/28 03:47:25;;;;;;;1.50;1.00;;;15.10;94.20;;;;;;4962478;28;20933;-77
2022/07/28 03:49:52;;;;;;;1.50;1.00;;;15.10;93.90;;;;;;4973852;28;20951;-78
2022/07/28 03:52:19;;;;;;;1.47;1.00;;;15.10;94.40;;;;;;4948237;28;21247;-78
2022/07/28 03:54:46;;;;;;;1.47;1.00;;;15.00;94.70;;;;;;4967831;28;20481;-79
2022/07/28 03:57:15;;;;;;;1.50;1.00;;;15.00;94.70;;;;;;4972637;28;20955;-78
2022/07/28 03:59:46;;;;;;;1.50;1.00;;;15.00;94.50;;;;;;4978120;28;20494;-79
2022/07/28 04:02:16;;;;;;;1.50;1.10;;;15.00;95.00;;;;;;4977154;28;20548;-78
2022/07/28 04:04:43;;;;;;;1.50;1.00;;;14.90;94.30;;;;;;4984185;28;20511;-77
2022/07/28 04:07:10;;;;;;;1.50;1.00;;;14.90;94.90;;;;;;4946829;28;21029;-78
2022/07/28 04:09:37;;;;;;;1.50;1.00;;;14.80;95.10;;;;;;4965733;28;20524;-77
2022/07/28 04:12:05;;;;;;;1.50;1.03;;;14.80;94.90;;;;;;4950053;28;20494;-77
2022/07/28 04:14:33;;;;;;;1.43;1.00;;;14.80;95.70;;;;;;4969567;28;20461;-77
2022/07/28 04:17:00;;;;;;;1.50;1.00;;;14.80;94.70;;;;;;4957087;28;20485;-77
2022/07/28 04:19:28;;;;;;;1.50;1.03;;;14.90;95.10;;;;;;4970513;28;20847;-76
2022/07/28 04:21:55;;;;;;;1.47;1.00;;;14.80;94.90;;;;;;4971032;28;21046;-77
2022/07/28 04:24:22;;;;;;;1.50;1.00;;;14.90;95.30;;;;;;4980031;28;20472;-78
2022/07/28 04:26:50;;;;;;;1.50;1.00;;;14.90;95.40;;;;;;4969153;28;20899;-77
2022/07/28 04:29:17;;;;;;;1.50;1.00;;;14.90;95.30;;;;;;4984187;28;20476;-78
2022/07/28 04:31:46;;;;;;;1.50;1.00;;;14.90;95.20;;;;;;4974517;28;20501;-76
2022/07/28 04:34:13;;;;;;;1.43;1.07;;;14.90;95.60;;;;;;4982366;28;20887;-77
2022/07/28 04:36:42;;;;;;;1.50;1.00;;;14.90;95.40;;;;;;4971095;28;20943;-77
2022/07/28 04:39:11;;;;;;;1.50;1.00;;;14.90;95.50;;;;;;4976759;28;20783;-77
2022/07/28 04:41:38;;;;;;;1.50;1.10;;;14.90;95.60;;;;;;4971253;28;20487;-78
2022/07/28 04:44:05;;;;;;;1.50;1.00;;;14.90;96.10;;;;;;4980458;28;20549;-76
2022/07/28 04:46:33;;;;;;;1.50;1.00;;;14.90;95.80;;;;;;4959334;28;20485;-77
2022/07/28 04:49:02;;;;;;;1.50;1.00;;;14.90;95.60;;;;;;4970545;28;20461;-77
2022/07/28 04:51:30;;;;;;;1.47;1.00;;;15.00;95.40;;;;;;4977051;28;20572;-77
2022/07/28 04:53:57;;;;;;;1.50;1.00;;;15.00;95.80;;;;;;4975193;28;20485;-78
2022/07/28 04:56:26;;;;;;;1.50;1.00;;;15.00;95.70;;;;;;4959941;28;20478;-77
2022/07/28 04:58:53;;;;;;;1.50;1.00;;;15.10;95.90;;;;;;4976096;28;21264;-77
2022/07/28 05:01:22;;;;;;;1.50;1.00;;;15.10;95.30;;;;;;4963113;28;20490;-77
2022/07/28 05:03:49;;;;;;;1.50;1.00;;;15.20;95.60;;;;;;4966799;28;20776;-77
2022/07/28 05:06:18;;;;;;;1.50;1.00;;;15.20;95.80;;;;;;4973200;28;20489;-76
2022/07/28 05:08:45;;;;;;;1.50;1.00;;;15.30;96.00;;;;;;4972228;28;20477;-77
2022/07/28 05:11:12;;;;;;;1.50;1.00;;;15.40;96.60;;;;;;4965154;28;20575;-77
2022/07/28 05:13:49;;;;;;;1.50;1.00;;;15.60;96.40;;;;;;4982688;28;20473;-78
2022/07/28 05:16:25;;;;;;;1.50;1.10;;;15.70;96.20;;;;;;4970115;28;20513;-78
2022/07/28 05:18:57;;;;;;;1.50;1.00;;;15.90;95.80;;;;;;4968170;28;20466;-78
2022/07/28 05:21:36;;;;;;;1.50;1.00;;;16.10;95.10;;;;;;4968412;28;20517;-77
2022/07/28 05:27:14;;;;;;;1.50;1.00;;;16.50;94.50;;;;;;4943287;28;20574;-78
2022/07/28 05:29:49;;;;;;;1.50;1.00;;;16.80;93.30;;;;;;4971633;28;20464;-77
2022/07/28 05:32:20;;;;;;;1.50;1.00;;;17.00;93.40;;;;;;4972822;28;21021;-77
2022/07/28 05:34:50;;;;;;;1.50;1.00;;;17.30;92.90;;;;;;4991821;28;20473;-77
2022/07/28 05:37:46;;;;;;;1.47;1.00;;;17.60;91.80;;;;;;4969711;28;20513;-77
2022/07/28 05:40:22;;;;;;;1.50;0.90;;;17.90;90.80;;;;;;4975959;28;20966;-78
2022/07/28 05:43:11;;;;;;;1.43;1.00;;;18.10;89.50;;;;;;4971992;28;20489;-78
2022/07/28 05:45:42;;;;;;;1.47;0.90;;;18.20;88.30;;;;;;4984436;28;20485;-77
2022/07/28 05:48:32;;;;;;;1.50;0.90;;;18.10;88.40;;;;;;4961510;28;20481;-77
2022/07/28 05:50:59;;;;;;;1.50;1.00;;;18.10;88.50;;;;;;4968795;28;20509;-79
2022/07/28 05:53:28;;;;;;;1.43;0.90;;;18.00;88.80;;;;;;4956228;28;20466;-78
2022/07/28 05:55:56;;;;;;;1.43;0.90;;;18.00;88.50;;;;;;4963341;28;20492;-78
2022/07/28 05:58:24;;;;;;;1.50;0.90;;;18.00;88.20;;;;;;4973465;28;20458;-78
2022/07/28 06:00:51;;;;;;;1.50;0.90;;;18.00;88.60;;;;;;4973461;28;20588;-78
2022/07/28 06:03:19;;;;;;;1.50;0.90;;;18.00;89.20;;;;;;4976570;28;20496;-79
2022/07/28 06:05:46;;;;;;;1.47;0.90;;;18.00;88.60;;;;;;4989717;28;20560;-78
2022/07/28 06:08:14;;;;;;;1.50;0.90;;;18.10;88.80;;;;;;4970474;28;20505;-78
2022/07/28 06:11:08;;;;;;;1.47;0.90;;;18.10;89.10;;;;;;4990120;28;20484;-77
2022/07/28 06:13:36;;;;;;;1.50;1.00;;;18.10;88.90;;;;;;4934936;28;20485;-78
2022/07/28 06:16:03;;;;;;;1.43;0.90;;;18.20;89.10;;;;;;4958622;28;20947;-78
2022/07/28 06:18:30;;;;;;;1.47;0.90;;;18.30;88.90;;;;;;4957285;28;20474;-78
2022/07/28 06:20:58;;;;;;;1.40;0.90;;;18.30;88.50;;;;;;4971633;28;20496;-78
2022/07/28 06:23:25;;;;;;;1.47;0.90;;;18.50;88.10;;;;;;4985689;28;20475;-78
2022/07/28 06:25:54;;;;;;;1.50;0.90;;;18.60;87.70;;;;;;4966976;28;20826;-78
2022/07/28 06:28:21;;;;;;;1.40;0.90;;;18.70;87.70;;;;;;4969040;28;20474;-78
2022/07/28 06:30:49;;;;;;;1.50;0.90;;;18.70;87.00;;;;;;4960316;28;20459;-77
2022/07/28 06:33:17;;;;;;;1.47;0.90;;;18.80;87.10;;;;;;4964017;28;20494;-77
2022/07/28 06:35:48;;;;;;;1.47;0.90;;;18.80;86.70;;;;;;4970233;28;20505;-77
2022/07/28 06:38:16;;;;;;;1.50;0.90;;;18.90;86.80;;;;;;4981004;28;20521;-77
2022/07/28 06:40:46;;;;;;;1.47;0.90;;;19.00;86.00;;;;;;4979381;28;20482;-77
2022/07/28 06:43:15;;;;;;;1.47;0.90;;;19.10;86.20;;;;;;4969133;28;20779;-78
2022/07/28 06:45:43;;;;;;;1.50;0.90;;;19.10;86.10;;;;;;4972740;28;20464;-77
2022/07/28 06:48:12;;;;;;;1.50;0.90;;;19.20;86.60;;;;;;4940661;28;20932;-77
2022/07/28 06:50:39;;;;;;;1.47;0.90;;;19.30;86.90;;;;;;4967363;28;20470;-78
2022/07/28 06:53:07;;;;;;;1.47;0.90;;;19.50;85.40;;;;;;4948037;28;20517;-77
2022/07/28 06:55:34;;;;;;;1.50;0.90;;;19.70;84.90;;;;;;4981403;28;20490;-77
2022/07/28 06:58:02;;;;;;;1.50;0.90;;;19.70;85.10;;;;;;4974439;28;20905;-76
2022/07/28 07:00:30;;;;;;;1.40;1.00;;;19.90;83.90;;;;;;4968849;28;20494;-78
2022/07/28 07:02:58;;;;;;;1.43;0.90;;;20.00;83.00;;;;;;4963393;28;20505;-77
2022/07/28 07:05:28;;;;;;;1.50;0.90;;;20.10;83.30;;;;;;4975693;28;20559;-78
2022/07/28 07:07:55;;;;;;;1.47;0.90;;;20.10;83.10;;;;;;4970219;28;20545;-77
2022/07/28 07:10:24;;;;;;;1.50;0.90;;;20.20;83.00;;;;;;4975261;28;20942;-77
2022/07/28 07:12:51;;;;;;;1.43;0.90;;;20.20;82.90;;;;;;4958473;28;20482;-77
2022/07/28 07:15:18;;;;;;;1.47;0.90;;;20.20;83.80;;;;;;4971088;28;20470;-76
2022/07/28 07:17:47;;;;;;;1.50;1.07;;;20.50;83.00;;;;;;4969354;28;20470;-77
2022/07/28 07:20:15;;;;;;;1.47;0.90;;;20.80;83.70;;;;;;4983323;28;20494;-76
2022/07/28 07:22:43;;;;;;;1.43;0.90;;;21.00;82.50;;;;;;4975681;28;20497;-76
2022/07/28 07:25:12;;;;;;;1.47;0.90;;;21.40;80.50;;;;;;4978727;28;20939;-76
2022/07/28 07:27:39;;;;;;;1.50;0.90;;;21.70;79.40;;;;;;4960969;28;20942;-76
2022/07/28 07:30:08;;;;;;;1.50;0.90;;;21.90;80.20;;;;;;4965195;28;20933;-76
2022/07/28 07:32:35;;;;;;;1.43;0.90;;;22.10;79.60;;;;;;4960038;28;20533;-77
2022/07/28 07:35:05;;;;;;;1.50;0.90;;;22.30;78.20;;;;;;4965263;28;20473;-77
2022/07/28 07:37:33;;;;;;;1.47;0.90;;;22.40;77.60;;;;;;4951512;28;20490;-77
2022/07/28 07:40:00;;;;;;;1.47;0.90;;;22.50;76.40;;;;;;4970834;28;20471;-77
2022/07/28 07:42:28;;;;;;;1.50;0.90;;;22.50;75.20;;;;;;4956364;28;20565;-77
2022/07/28 07:44:55;;;;;;;1.43;0.80;;;22.60;75.30;;;;;;4978333;28;20682;-76
2022/07/28 07:47:22;;;;;;;1.47;0.90;;;22.80;75.30;;;;;;4948801;28;20494;-77
2022/07/28 07:49:50;;;;;;;1.47;0.90;;;22.80;75.40;;;;;;4976194;28;20473;-77
2022/07/28 07:52:19;;;;;;;1.47;0.90;;;23.00;76.30;;;;;;4943670;28;20494;-77
2022/07/28 07:54:46;;;;;;;1.50;0.90;;;23.30;74.30;;;;;;4967315;28;20467;-77
2022/07/28 07:57:14;;;;;;;1.50;0.90;;;23.40;73.80;;;;;;4974028;28;20604;-77
2022/07/28 07:59:41;;;;;;;1.50;0.90;;;23.30;74.10;;;;;;4976344;28;20477;-76
2022/07/28 08:02:08;;;;;;;1.50;0.90;;;23.40;73.80;;;;;;4969095;28;20500;-76
2022/07/28 08:04:38;;;;;;;1.50;0.90;;;23.70;73.50;;;;;;4973760;28;20853;-77
2022/07/28 08:07:05;;;;;;;1.47;0.90;;;24.00;72.00;;;;;;4950461;28;20496;-77
2022/07/28 08:09:34;;;;;;;1.47;0.90;;;24.10;71.40;;;;;;4966215;28;20579;-76
2022/07/28 08:12:02;;;;;;;1.50;0.90;;;23.90;71.90;;;;;;4971363;28;20550;-77
2022/07/28 08:14:29;;;;;;;1.50;0.90;;;24.00;71.50;;;;;;4982579;28;20886;-77
2022/07/28 08:16:58;;;;;;;1.47;0.87;;;24.10;70.90;;;;;;4950834;28;20483;-77
2022/07/28 08:19:25;;;;;;;1.50;0.90;;;23.90;71.40;;;;;;4970188;28;20458;-77
2022/07/28 08:21:56;;;;;;;1.43;0.90;;;24.10;72.60;;;;;;4971838;28;20490;-77
2022/07/28 08:24:24;;;;;;;1.50;0.87;;;24.30;71.90;;;;;;4984853;28;20458;-77
2022/07/28 08:26:52;;;;;;;1.50;0.80;;;24.60;71.40;;;;;;4976015;28;20516;-77
2022/07/28 08:29:23;;;;;;;1.47;0.90;;;24.90;70.90;;;;;;4977035;28;20470;-77
2022/07/28 08:31:51;;;;;;;1.47;0.80;;;25.10;69.50;;;;;;4964700;28;20485;-76
2022/07/28 08:34:19;;;;;;;1.47;0.90;;;25.20;69.40;;;;;;4966499;28;20461;-77
2022/07/28 08:36:46;;;;;;;1.40;0.90;;;25.40;69.50;;;;;;4964683;28;20484;-76
2022/07/28 08:39:13;;;;;;;1.47;0.90;;;25.30;67.90;;;;;;4969453;28;20497;-77
2022/07/28 08:41:48;;;;;;;1.47;0.90;;;25.00;67.60;;;;;;4961208;28;20531;-77
2022/07/28 08:44:21;;;;;;;1.43;0.87;;;25.00;68.90;;;;;;4967702;28;21008;-77
2022/07/28 08:46:49;;;;;;;1.40;0.90;;;25.10;67.60;;;;;;4971451;28;20460;-77
2022/07/28 08:49:17;;;;;;;1.47;0.80;;;25.10;67.50;;;;;;4970254;28;20497;-76
2022/07/28 08:51:47;;;;;;;1.47;0.90;;;25.10;69.00;;;;;;4959108;28;20504;-77
2022/07/28 08:54:20;;;;;;;1.47;0.90;;;25.20;66.70;;;;;;4971689;28;20981;-76
2022/07/28 08:56:48;;;;;;;1.47;0.90;;;25.00;68.30;;;;;;4952670;28;21030;-77
2022/07/28 08:59:17;;;;;;;1.50;0.90;;;25.00;68.00;;;;;;4963431;28;20472;-77
2022/07/28 09:01:45;;;;;;;1.50;1.00;;;25.10;68.60;;;;;;4983132;28;20496;-77
2022/07/28 09:04:15;;;;;;;1.47;0.80;;;25.30;67.50;;;;;;4982409;28;20473;-77
2022/07/28 09:06:43;;;;;;;1.43;0.80;;;25.50;67.50;;;;;;4970882;28;20465;-77
2022/07/28 09:09:10;;;;;;;1.47;0.83;;;25.70;66.80;;;;;;4976577;28;20479;-77
2022/07/28 09:11:38;;;;;;;1.50;0.90;;;25.90;68.10;;;;;;4977807;28;20504;-75
2022/07/28 09:14:05;;;;;;;1.47;0.80;;;26.20;66.10;;;;;;4978973;28;20586;-77
2022/07/28 09:16:34;;;;;;;1.50;0.80;;;26.30;64.80;;;;;;4960428;28;21065;-77
2022/07/28 09:19:02;;;;;;;1.50;0.80;;;26.40;66.20;;;;;;4962057;28;20484;-77
2022/07/28 09:21:30;;;;;;;1.50;1.00;;;26.60;65.90;;;;;;4972495;28;20493;-77
2022/07/28 09:24:03;;;;;;;1.43;0.80;;;26.90;65.80;;;;;;4983592;28;20525;-78
2022/07/28 09:26:31;;;;;;;1.47;0.90;;;27.10;63.20;;;;;;4975191;28;20527;-77
2022/07/28 09:29:00;;;;;;;1.47;0.80;;;27.30;64.90;;;;;;4978636;28;20548;-77
2022/07/28 09:31:43;;;;;;;1.50;0.90;;;27.30;63.10;;;;;;4962151;28;20586;-78
2022/07/28 09:34:41;;;;;;;1.40;0.90;;;27.50;63.50;;;;;;4970543;28;20554;-77
2022/07/28 09:37:18;;;;;;;1.50;0.90;;;27.50;62.40;;;;;;4949733;28;20486;-77
2022/07/28 09:39:48;;;;;;;1.40;0.80;;;27.60;62.60;;;;;;4961893;28;20501;-78
2022/07/28 09:42:17;;;;;;;1.40;0.80;;;27.70;63.10;;;;;;4943219;28;20588;-76
2022/07/28 09:44:45;;;;;;;1.43;0.80;;;27.70;61.70;;;;;;4956230;28;20469;-77
2022/07/28 09:47:25;;;;;;;1.40;0.80;;;27.50;61.20;;;;;;4933533;29;20565;-75
2022/07/28 09:49:55;;;;;;;1.47;0.80;;;27.70;63.20;;;;;;4957684;28;20478;-77
2022/07/28 09:52:33;;;;;;;1.43;0.80;;;27.90;62.40;;;;;;4956502;28;20516;-78
2022/07/28 09:55:03;;;;;;;1.40;0.87;;;28.00;62.70;;;;;;4964239;28;20481;-76
2022/07/28 09:58:06;;;;;;;1.50;0.80;;;28.20;61.10;;;;;;4963518;28;20474;-76
2022/07/28 10:00:34;;;;;;;1.43;0.80;;;28.20;60.40;;;;;;4947761;28;20462;-77
2022/07/28 10:03:05;;;;;;;1.43;0.80;;;28.20;61.90;;;;;;4936248;28;20494;-77
2022/07/28 10:05:43;;;;;;;1.43;0.80;;;28.20;61.40;;;;;;4954398;28;20908;-78
2022/07/28 10:08:11;;;;;;;1.43;0.80;;;28.30;61.00;;;;;;4952263;28;20496;-76
2022/07/28 10:10:40;;;;;;;1.43;0.80;;;28.40;60.50;;;;;;4962841;28;20504;-77
2022/07/28 10:13:08;;;;;;;1.40;0.80;;;28.50;60.70;;;;;;4940286;28;20491;-77
2022/07/28 10:18:20;;;;;;;1.40;0.80;;;28.60;60.80;;;;;;4923463;29;20481;-77
2022/07/28 10:20:50;;;;;;;1.43;0.80;;;28.60;61.20;;;;;;4939497;28;20506;-78
2022/07/28 10:23:19;;;;;;;1.43;0.80;;;28.50;61.10;;;;;;4934873;29;20552;-77
2022/07/28 10:25:46;;;;;;;1.43;0.80;;;28.40;60.10;;;;;;4964372;28;20545;-77
2022/07/28 10:28:18;;;;;;;1.40;0.80;;;28.40;61.40;;;;;;4964008;28;20690;-75
2022/07/28 10:30:49;;;;;;;1.43;0.80;;;28.50;60.20;;;;;;4940633;28;20473;-76
2022/07/28 10:33:18;;;;;;;1.40;0.80;;;28.40;59.70;;;;;;4938019;29;21116;-76
2022/07/28 10:35:48;;;;;;;1.43;0.80;;;28.40;59.70;;;;;;4943423;28;20471;-76
2022/07/28 10:38:19;;;;;;;1.40;0.80;;;28.30;60.90;;;;;;4951539;28;20548;-77
2022/07/28 10:40:49;;;;;;;1.50;1.00;;;28.50;61.40;;;;;;4941463;28;20466;-78
2022/07/28 10:43:17;;;;;;;1.43;0.80;;;28.70;59.90;;;;;;4953051;28;21424;-77
2022/07/28 10:45:45;;;;;;;1.40;0.80;;;28.80;59.60;;;;;;4944089;28;20480;-78
2022/07/28 10:48:14;;;;;;;1.47;0.80;;;28.90;59.60;;;;;;4928482;28;20485;-76
2022/07/28 10:50:42;;;;;;;1.47;0.80;;;28.90;59.90;;;;;;4949503;28;20462;-76
2022/07/28 10:53:17;;;;;;;1.43;0.80;;;29.00;59.50;;;;;;4956471;28;20486;-77
2022/07/28 10:56:00;;;;;;;1.43;0.80;;;29.00;61.00;;;;;;4948876;28;20489;-77
2022/07/28 10:58:45;;;;;;;1.50;0.80;;;29.30;60.90;;;;;;4923227;28;20491;-77
2022/07/28 11:01:32;;;;;;;1.40;0.80;;;29.50;57.70;;;;;;4937796;28;20493;-76
2022/07/28 11:04:00;;;;;;;1.40;0.80;;;29.30;59.20;;;;;;4951023;28;20462;-76
2022/07/28 11:06:30;;;;;;;1.50;0.80;;;29.40;57.90;;;;;;4932096;28;20486;-76
2022/07/28 11:08:59;;;;;;;1.50;0.97;;;29.40;59.60;;;;;;4943084;28;20523;-76
2022/07/28 11:11:49;;;;;;;1.40;0.80;;;29.50;58.50;;;;;;4957231;28;20494;-76
2022/07/28 11:14:34;;;;;;;1.47;0.90;;;29.50;59.00;;;;;;4948200;28;20558;-77
2022/07/28 11:17:19;;;;;;;1.40;0.80;;;29.50;58.00;;;;;;4944851;28;20879;-76
2022/07/28 11:19:57;;;;;;;1.43;0.80;;;29.30;58.70;;;;;;4951258;28;20998;-77
2022/07/28 11:22:28;;;;;;;1.43;0.80;;;29.40;58.70;;;;;;4925237;28;20884;-76
2022/07/28 11:25:15;;;;;;;1.43;0.80;;;29.50;58.80;;;;;;4947409;28;20474;-76
2022/07/28 11:28:04;;;;;;;1.40;0.80;;;29.80;59.20;;;;;;4940628;28;20559;-76
2022/07/28 11:30:53;;;;;;;1.43;0.90;;;29.90;58.40;;;;;;4956723;28;20493;-76
2022/07/28 11:33:21;;;;;;;1.43;0.80;;;29.90;58.90;;;;;;4923729;28;20972;-77
2022/07/28 11:35:56;;;;;;;1.43;0.80;;;29.70;58.20;;;;;;4944293;28;20470;-76
2022/07/28 11:38:24;;;;;;;1.43;0.80;;;29.70;58.90;;;;;;4950632;28;20468;-76
2022/07/28 11:40:54;;;;;;;1.40;0.80;;;29.70;58.00;;;;;;4947767;28;20479;-76
2022/07/28 11:43:34;;;;;;;1.47;0.80;;;29.80;58.50;;;;;;4942530;28;20497;-75
2022/07/28 11:46:36;;;;;;;1.40;0.80;;;29.80;57.90;;;;;;4934314;28;20466;-76
2022/07/28 11:49:23;;;;;;;1.47;0.90;;;29.90;58.10;;;;;;4946105;28;20756;-76
2022/07/28 11:52:11;;;;;;;1.43;0.80;;;29.90;57.80;;;;;;4932866;28;20490;-76
2022/07/28 11:54:40;;;;;;;1.50;0.80;;;29.60;58.10;;;;;;4941827;28;20773;-76
2022/07/28 11:57:09;;;;;;;1.47;0.80;;;29.50;57.80;;;;;;4924500;28;20731;-77
2022/07/28 11:59:47;;;;;;;1.80;1.30;;;29.80;59.00;;;;;;4941445;28;21250;-77
2022/07/28 12:02:23;;;;;;;1.47;0.80;;;30.20;57.60;;;;;;4917402;28;20479;-77
2022/07/28 12:05:02;;;;;;;1.40;0.80;;;30.00;55.70;;;;;;4941569;28;20476;-76
2022/07/28 12:07:41;;;;;;;1.40;0.80;;;29.80;56.20;;;;;;4918210;28;20625;-76
2022/07/28 12:10:28;;;;;;;1.43;0.80;;;30.10;57.60;;;;;;4953169;28;20477;-76
2022/07/28 12:12:57;;;;;;;1.50;1.00;;;29.70;56.00;;;;;;4940995;28;20533;-76
2022/07/28 12:15:26;;;;;;;1.43;0.80;;;29.50;56.20;;;;;;4950422;28;20476;-75
2022/07/28 12:17:54;;;;;;;1.40;0.80;;;29.60;57.30;;;;;;4938855;28;20478;-77
2022/07/28 12:20:21;;;;;;;1.40;0.80;;;29.90;57.60;;;;;;4948376;28;20546;-77
2022/07/28 12:23:03;;;;;;;1.40;0.80;;;30.20;55.80;;;;;;4921725;29;20545;-77
2022/07/28 12:25:40;;;;;;;1.47;0.80;;;30.50;54.50;;;;;;4948554;28;20470;-76
2022/07/28 12:28:23;;;;;;;1.40;0.80;;;30.40;54.20;;;;;;4961549;28;20472;-76
2022/07/28 12:30:52;;;;;;;1.40;0.80;;;30.20;55.60;;;;;;4946611;28;20481;-76
2022/07/28 12:33:22;;;;;;;1.40;0.80;;;30.50;56.20;;;;;;4930930;28;21010;-76
2022/07/28 12:35:52;;;;;;;1.47;0.80;;;30.80;55.00;;;;;;4957842;28;20465;-76
2022/07/28 12:38:21;;;;;;;1.47;0.80;;;31.10;54.40;;;;;;4953690;28;20470;-77
2022/07/28 12:40:48;;;;;;;1.47;0.90;;;31.30;54.10;;;;;;4952051;28;20462;-76
2022/07/28 12:43:59;;;;;;;1.40;0.80;;;31.20;54.70;;;;;;4954132;28;20489;-76
2022/07/28 12:46:31;;;;;;;1.40;0.80;;;31.40;54.80;;;;;;4939693;28;20548;-77
2022/07/28 12:48:59;;;;;;;1.43;0.80;;;31.80;55.70;;;;;;4947738;28;20515;-76
2022/07/28 12:51:35;;;;;;;1.47;0.80;;;31.90;53.00;;;;;;4946658;28;20234;-75
2022/07/28 12:54:03;;;;;;;1.47;0.80;;;31.60;52.90;;;;;;4963321;28;20468;-76
2022/07/28 12:56:30;;;;;;;1.47;0.80;;;31.20;52.90;;;;;;4943014;28;20485;-76
2022/07/28 12:59:05;;;;;;;1.50;1.00;;;30.80;54.20;;;;;;4951868;28;20470;-77
2022/07/28 13:02:48;;;;;;;1.40;0.80;;;30.60;55.60;;;;;;4952466;28;20494;-75
2022/07/28 13:08:44;;;;;;;1.47;0.80;;;30.40;56.20;;;;;;4941298;28;20484;-77
2022/07/28 13:11:13;;;;;;;1.40;0.80;;;30.60;56.90;;;;;;4943344;28;20926;-76
2022/07/28 13:13:49;;;;;;;1.43;0.80;;;30.60;55.20;;;;;;4928557;28;20470;-76
2022/07/28 13:16:18;;;;;;;1.40;0.80;;;30.50;54.80;;;;;;4945108;28;21101;-76
2022/07/28 13:18:58;;;;;;;1.43;0.80;;;30.20;55.30;;;;;;4947111;28;20466;-77